createdAt,value
2022-08-03T00:03:41.241Z,22.21
2022-08-03T00:08:44.016Z,22.23
2022-08-03T00:13:47.032Z,22.23
2022-08-03T00:18:55.057Z,22.23
2022-08-03T00:23:57.794Z,22.24
2022-08-03T00:29:00.572Z,22.21
2022-08-03T00:34:08.616Z,22.20
2022-08-03T00:39:11.356Z,22.19
2022-08-03T00:44:14.066Z,22.17
2022-08-03T00:49:22.164Z,22.13
2022-08-03T00:54:26.170Z,22.08
2022-08-03T00:59:29.006Z,22.06
2022-08-03T01:04:37.037Z,22.07
2022-08-03T01:09:53.525Z,22.09
2022-08-03T01:15:03.845Z,22.12
2022-08-03T01:20:15.521Z,22.13
2022-08-03T01:25:34.172Z,22.16
2022-08-03T01:30:46.521Z,22.17
2022-08-03T01:35:54.475Z,22.18
2022-08-03T01:40:58.937Z,22.18
2022-08-03T01:46:09.802Z,22.18
2022-08-03T01:51:14.621Z,22.18
2022-08-03T01:56:19.063Z,22.11
2022-08-03T02:02:25.248Z,22.06
2022-08-03T02:07:02.527Z,22.06
2022-08-03T02:12:09.817Z,22.03
2022-08-03T02:17:17.952Z,22.04
2022-08-03T02:22:38.107Z,22.04
2022-08-03T02:27:47.275Z,22.03
2022-08-03T02:32:57.063Z,22.04
2022-08-03T02:38:03.161Z,22.03
2022-08-03T02:48:31.770Z,22.13
2022-08-03T02:53:36.097Z,22.07
2022-08-03T02:58:41.309Z,22.06
2022-08-03T03:03:50.822Z,22.07
2022-08-03T03:14:13.408Z,22.13
2022-08-03T03:19:18.357Z,22.04
2022-08-03T03:24:22.127Z,22.03
2022-08-03T03:29:30.648Z,22.01
2022-08-03T03:34:43.489Z,22.02
2022-08-03T03:39:47.088Z,22.02
2022-08-03T03:44:55.125Z,22.03
2022-08-03T03:49:58.648Z,22.02
2022-08-03T03:55:01.933Z,22.03
2022-08-03T04:00:11.383Z,22.03
2022-08-03T04:05:14.960Z,22.04
2022-08-03T04:10:22.568Z,22.03
2022-08-03T04:15:34.273Z,22.02
2022-08-03T04:20:39.967Z,22.04
2022-08-03T04:25:44.634Z,22.02
2022-08-03T04:30:54.546Z,22.04
2022-08-03T04:36:02.608Z,22.05
2022-08-03T04:41:06.531Z,22.08
2022-08-03T04:51:34.703Z,22.24
2022-08-03T04:56:37.457Z,22.19
2022-08-03T05:01:41.548Z,22.21
2022-08-03T05:06:54.897Z,22.23
2022-08-03T05:11:58.094Z,22.22
2022-08-03T05:17:00.853Z,22.22
2022-08-03T05:22:08.864Z,22.26
2022-08-03T05:27:11.622Z,22.37
2022-08-03T05:32:14.439Z,22.49
2022-08-03T05:37:22.630Z,22.64
2022-08-03T05:42:25.385Z,22.81
2022-08-03T05:47:28.198Z,22.99
2022-08-03T05:52:36.254Z,23.20
2022-08-03T05:57:39.780Z,23.39
2022-08-03T06:02:43.091Z,23.56
2022-08-03T06:07:51.149Z,23.77
2022-08-03T06:12:53.915Z,23.99
2022-08-03T06:18:00.025Z,24.21
2022-08-03T06:23:16.191Z,24.45
2022-08-03T06:28:53.015Z,24.72
2022-08-03T06:34:31.136Z,24.98
2022-08-03T06:39:11.368Z,25.28
2022-08-03T06:49:32.798Z,25.96
2022-08-03T06:54:36.907Z,26.19
2022-08-03T07:00:07.339Z,26.48
2022-08-03T07:05:09.037Z,26.81
2022-08-03T07:10:12.353Z,27.16
2022-08-03T07:20:33.901Z,27.90
2022-08-03T07:25:36.694Z,28.17
2022-08-03T07:30:39.828Z,28.49
2022-08-03T07:35:47.845Z,28.83
2022-08-03T07:40:50.584Z,29.18
2022-08-03T07:45:53.296Z,29.49
2022-08-03T07:51:01.407Z,29.82
2022-08-03T07:56:05.759Z,30.14
2022-08-03T08:01:15.148Z,30.42
2022-08-03T08:06:23.345Z,30.72
2022-08-03T08:11:26.087Z,31.08
2022-08-03T08:16:28.818Z,31.36
2022-08-03T08:21:53.134Z,31.71
2022-08-03T08:26:59.586Z,32.08
2022-08-03T08:32:02.279Z,32.40
2022-08-03T08:37:10.333Z,32.64
2022-08-03T08:42:13.182Z,32.91
2022-08-03T08:52:36.326Z,33.55
2022-08-03T08:57:43.609Z,33.68
2022-08-03T09:02:47.274Z,33.84
2022-08-03T09:07:55.339Z,34.06
2022-08-03T09:18:32.388Z,34.60
2022-08-03T09:24:01.626Z,34.77
2022-08-03T09:29:14.053Z,34.99
2022-08-03T09:34:26.713Z,35.20
2022-08-03T09:39:41.749Z,35.42
2022-08-03T09:50:08.360Z,35.87
2022-08-03T09:56:01.730Z,36.02
2022-08-03T10:00:54.407Z,36.26
2022-08-03T10:06:16.456Z,36.58
2022-08-03T10:11:30.780Z,36.81
2022-08-03T10:16:36.242Z,36.93
2022-08-03T10:21:50.489Z,37.00
2022-08-03T10:32:20.322Z,37.02
2022-08-03T10:37:26.144Z,37.02
2022-08-03T10:42:30.341Z,37.22
2022-08-03T10:47:38.841Z,37.48
2022-08-03T10:52:55.758Z,37.71
2022-08-03T11:03:17.549Z,38.14
2022-08-03T11:08:28.864Z,38.30
2022-08-03T11:13:32.656Z,38.40
2022-08-03T11:18:57.462Z,38.46
2022-08-03T11:24:04.660Z,38.60
2022-08-03T11:29:31.093Z,38.81
2022-08-03T11:35:08.532Z,39.04
2022-08-03T11:40:40.379Z,39.21
2022-08-03T11:45:57.968Z,39.37
2022-08-03T11:51:01.224Z,39.55
2022-08-03T11:56:12.679Z,39.71
2022-08-03T12:01:18.788Z,39.86
2022-08-03T12:06:24.030Z,39.85
2022-08-03T12:11:32.106Z,39.86
2022-08-03T12:16:34.994Z,39.93
2022-08-03T12:21:56.654Z,40.01
2022-08-03T12:32:24.716Z,40.12
2022-08-03T12:42:46.990Z,40.06
2022-08-03T12:47:54.493Z,39.67
2022-08-03T12:52:57.927Z,40.00
2022-08-03T12:58:07.705Z,40.06
2022-08-03T13:03:41.883Z,40.13
2022-08-03T13:08:33.148Z,40.00
2022-08-03T13:19:05.286Z,39.98
2022-08-03T13:24:08.545Z,39.79
2022-08-03T13:29:11.386Z,39.66
2022-08-03T13:34:22.993Z,39.62
2022-08-03T13:39:32.633Z,39.54
2022-08-03T13:50:00.002Z,39.66
2022-08-03T13:55:05.579Z,39.63
2022-08-03T14:00:09.740Z,39.70
2022-08-03T14:05:17.766Z,39.72
2022-08-03T14:10:20.548Z,39.77
2022-08-03T14:20:48.967Z,39.58
2022-08-03T14:25:54.302Z,39.54
2022-08-03T14:30:57.475Z,39.64
2022-08-03T14:36:06.463Z,39.65
2022-08-03T14:41:12.121Z,39.73
2022-08-03T14:46:22.707Z,39.74
2022-08-03T14:51:30.817Z,39.70
2022-08-03T14:56:34.760Z,39.68
2022-08-03T15:02:05.603Z,39.74
2022-08-03T15:07:05.670Z,39.76
2022-08-03T15:12:08.770Z,39.77
2022-08-03T15:17:11.576Z,39.83
2022-08-03T15:27:38.236Z,40.00
2022-08-03T15:33:00.962Z,39.96
2022-08-03T15:38:09.008Z,40.03
2022-08-03T15:43:17.597Z,40.17
2022-08-03T15:48:20.354Z,40.32
2022-08-03T15:53:29.283Z,40.34
2022-08-03T16:03:50.775Z,40.20
2022-08-03T16:08:53.509Z,40.10
2022-08-03T16:14:12.963Z,40.03
2022-08-03T16:19:24.218Z,39.96
2022-08-03T16:24:27.746Z,39.92
2022-08-03T16:29:30.906Z,39.81
2022-08-03T16:34:40.115Z,39.59
2022-08-03T16:39:42.837Z,39.33
2022-08-03T16:44:45.604Z,39.05
2022-08-03T16:49:56.460Z,38.72
2022-08-03T16:55:00.056Z,38.45
2022-08-03T17:00:04.193Z,38.25
2022-08-03T17:05:13.487Z,38.08
2022-08-03T17:10:16.663Z,37.91
2022-08-03T17:15:38.258Z,37.74
2022-08-03T17:20:55.387Z,37.52
2022-08-03T17:26:02.270Z,37.27
2022-08-03T17:31:23.274Z,37.08
2022-08-03T17:37:02.555Z,36.85
2022-08-03T17:42:00.587Z,36.54
2022-08-03T17:47:04.472Z,36.17
2022-08-03T17:52:22.179Z,35.78
2022-08-03T17:58:01.351Z,35.40
2022-08-03T18:03:05.828Z,35.05
2022-08-03T18:08:18.571Z,34.70
2022-08-03T18:13:31.348Z,34.39
2022-08-03T18:18:38.640Z,34.07
2022-08-03T18:23:50.341Z,33.79
2022-08-03T18:28:54.896Z,33.53
2022-08-03T18:34:17.325Z,33.24
2022-08-03T18:39:29.237Z,32.99
2022-08-03T18:44:52.510Z,32.75
2022-08-03T18:50:04.568Z,32.54
2022-08-03T18:55:20.274Z,32.26
2022-08-03T19:00:42.479Z,32.02
2022-08-03T19:06:02.760Z,31.77
2022-08-03T19:11:28.185Z,31.53
2022-08-03T19:16:35.693Z,31.30
2022-08-03T19:21:42.470Z,31.09
2022-08-03T19:26:52.223Z,30.83
2022-08-03T19:37:15.928Z,30.28
2022-08-03T19:42:25.862Z,29.94
2022-08-03T19:52:55.171Z,29.46
2022-08-03T19:57:58.965Z,29.24
2022-08-03T20:03:02.273Z,29.09
2022-08-03T20:08:10.400Z,28.92
2022-08-03T20:13:14.395Z,28.81
2022-08-03T20:18:22.277Z,28.72
2022-08-03T20:23:37.365Z,28.61
2022-08-03T20:28:49.684Z,28.50
2022-08-03T20:33:53.460Z,28.39
2022-08-03T20:39:01.617Z,28.24
2022-08-03T20:44:10.686Z,28.10
2022-08-03T20:49:13.509Z,27.93
2022-08-03T20:59:50.627Z,27.74
2022-08-03T21:04:54.089Z,27.56
2022-08-03T21:10:00.563Z,27.44
2022-08-03T21:15:09.979Z,27.29
2022-08-03T21:20:35.625Z,27.12
2022-08-03T21:25:38.922Z,26.85
2022-08-03T21:30:47.760Z,26.63
2022-08-03T21:51:50.586Z,26.25
2022-08-03T21:56:56.128Z,26.10
2022-08-03T22:01:59.056Z,26.01
2022-08-03T22:07:08.678Z,25.90
2022-08-03T22:12:11.634Z,25.84
2022-08-03T22:17:53.611Z,25.76
2022-08-03T22:22:55.185Z,25.61
2022-08-03T22:28:01.800Z,25.50
2022-08-03T22:43:59.495Z,25.25
2022-08-03T22:49:08.387Z,25.07
2022-08-03T22:54:12.451Z,24.96
2022-08-03T22:59:41.007Z,24.90
2022-08-03T23:04:45.898Z,24.85
2022-08-03T23:15:09.936Z,24.73
2022-08-03T23:20:14.483Z,24.58
2022-08-03T23:25:17.783Z,24.48
2022-08-03T23:36:29.114Z,24.39
2022-08-03T23:41:10.289Z,24.27
2022-08-03T23:46:14.278Z,24.17
2022-08-03T23:51:37.092Z,24.09
2022-08-03T23:56:53.190Z,24.01
